Bend, OR

9:13 PM PST on December 21, 2014 (GMT -0800)
Wind Dance NW | Change Station
CLOSE
Current Station
Personal Weather Station
Location: Bend, OR
Elevation: 3691 ft
Nearby Weather Stations

Elev 3691 ft 44.09 °N, 121.39 °W | Updated 4 seconds ago

Overcast
Overcast
39.8 °F
Feels Like 40 °F
N
0.0
Wind Variable Wind from NNE
Gusts 0.0 mph

Today
High -- | Low -- °F
--% Chance of Precip.
Yesterday
High -- | Low -- °F
Precip. -- in
7:37 AM 4:29 PM
New Moon, 0% visible
Pressure 30.14 in
Visibility 10.0 miles
Clouds Few 4300 ft
Few 4900 ft
Windchill 40 °F
Dew Point 38 °F
Humidity 93%
Rainfall 0.36 in
Snow Depth Not available.
UV 0 out of 12
Pollen .50 out of 12
Air Quality Not available.
Flu Activity Not available.
METAR KBDN 220455Z AUTO 00000KT 10SM FEW043 FEW049 04/04 A3014 RMK AO2

More Conditions Fewer Conditions

Pressure 30.14 in
Visibility 10.0 miles
Clouds Few 4300 ft
Few 4900 ft
Windchill 40 °F
Dew Point 38 °F
Humidity 93%
Rainfall 0.36 in
Snow Depth Not available.
UV 0 out of 12
Pollen .50 out of 12
Air Quality Not available.
Flu Activity Not available.
METAR KBDN 220455Z AUTO 00000KT 10SM FEW043 FEW049 04/04 A3014 RMK AO2

More Conditions Fewer Conditions

10-Day Weather Forecast

Almanac

Astronomy

Dec. 21, 2014 Rise Set
Actual Time
Civil Twilight
Nautical Twilight
Astronomical Twilight
Moon
Length of Visible Light
Length of Day
Tomorrow will be .
, % of the Moon is Illuminated

Today's Extremes

State Highs State Lows

Community

WunderPhotos

Upload Photos

1,779,547 photos uploaded!

WunderBlogs® & News

Nearby

Air Quality

  Air Quality AQ Index Pollutant
Not available.

Snow Depth

Station Depth Elevation

Earthquake Activity

City Distance Mag. Time & Date
Minimum magnitude displayed is 2.5.

Coastal Water Temperatures

Place Temperature

Nearby Weather Stations